Millenbeck, Virginia
Current Conditions -  °F | °C
As of 6:55 PM on Saturday 22 Nov 2014 (Local Time) from KW75 Reporting Station
Clear Clear  
Wind Chill: 33°   Ceiling: Unl
Heat Index: 37°   Visibility: 10mi
Dew Point: 20°   Wind: 6mph
Humidity: 49%   Direction: 210°SSW
Pressure: 30.36"   Gusts: NA
Location:  37.7649°N, 76.5055°W
Report Text: KW75 222355Z AUTO 21005KT 10SM CLR 03/M07 A3036 RMK AO1 T00291069 10093 20017
Loading
Personal Weather Stations






























Interactive Weather Map New forecast layout! Learn more

10-Day Weather Forecast

Advertisements
Track Severe Weather on mobile